Wederom door onbekende storing windmeter kunnen wij tijdelijk niet beschikken over actuele windsnelheden / gevoelstemperatuur

Update & Upgrade Weerstation Parkstad


Bewolking Meer informatie Parkstad Weather Satellite


Neerslagradar Meer informatie Parkstad Rain Snow Radar


Onweersbuien Meer informatie Parkstad Lighntning


24/7 Weercamera Meer informatie Parkstad Weathercam


Natuurbrandrisico
CBI







Het weer levert geen direct gevaar op in Parkstad.    Er zijn geen waarschuwingen afgegeven voor Parkstad (045)

METAR rapporten vliegvelden

   
EHAM - Amsterdam
Gewijzigd: 15-05-2021 03:25
Grotendeels bewolkt  
Grotendeels bewolkt  
   Wind: NW 5.6 km/h
Wind: NW 5.6 km/h
Temperatuur: 9°C
Voelt als: 8°C
Dauwpunt: 7°C
Vochtigheid: 87%
Barometer: 1006 hPa
Satelliet beelden: Grotendeels bewolkt
Zicht: meer dan 10 km
Bewolking: Licht bewolkt 366 m,
Grotendeels bewolkt 457 m
EHAM 150125Z 32003KT 9999 FEW012 BKN015 09/07 Q1006 BECMG BKN012
EBAW - Antwerpen
Gewijzigd: 15-05-2021 03:20
Grotendeels bewolkt  
Grotendeels bewolkt  
   Wind: NO 3.7 km/h
Wind: NO 3.7 km/h
Temperatuur: 9°C
Dauwpunt: 7°C
Vochtigheid: 87%
Barometer: 1007 hPa
Satelliet beelden: Grotendeels bewolkt
Zicht: 7 km
Bewolking: Grotendeels bewolkt 671 m
EBAW 150120Z AUTO 05002KT 7000 // BKN022/// 09/07 Q1007
EGLL - London
Gewijzigd: 15-05-2021 03:20
Grotendeels bewolkt  
Grotendeels bewolkt  
   Wind: ZZO 9.3 km/h
Wind: ZZO 9.3 km/h
Temperatuur: 9°C
Voelt als: 8°C
Dauwpunt: 7°C
Vochtigheid: 87%
Barometer: 1005 hPa
Satelliet beelden: Grotendeels bewolkt
Zicht: meer dan 10 km
Bewolking: Grotendeels bewolkt 396 m
EGLL 150120Z AUTO 16005KT 9999 BKN013 09/07 Q1005
ELLX - Luxemburg
Gewijzigd: 15-05-2021 03:20
Grotendeels bewolkt  
Grotendeels bewolkt  
   Wind: ZW 14.8 km/h
Wind: ZW 14.8 km/h
Temperatuur: 8°C
Voelt als: 6°C
Dauwpunt: 7°C
Vochtigheid: 93%
Barometer: 1008 hPa
Satelliet beelden: Grotendeels bewolkt
Zicht: meer dan 10 km
Bewolking: Licht bewolkt 183 m,
Gedeeltelijk bewolkt 244 m,
Grotendeels bewolkt 274 m
ELLX 150120Z AUTO 23008KT 9999 FEW006/// SCT008/// BKN009/// 08/07 Q1008 NOSIG
EDDT - Berlijn
Gewijzigd: 09-11-2020 07:50
Verouderd
Nevel, Bewolking  
Nevel, Bewolking  
   Wind: Oosten 11.1 km/h
Wind: Oosten 11.1 km/h
Temperatuur: 6°C
Voelt als: 4°C
Dauwpunt: 5°C
Vochtigheid: 93%
Barometer: 1027 hPa
Satelliet beelden: Bewolking
Zicht: 3 km
Bewolking: Bewolking 91 m
EDDT 090650Z 09006KT 050V120 3000 BR OVC003 06/05 Q1027
EDDM - München
Gewijzigd: 15-05-2021 03:20
Gedeeltelijk bewolkt  
Gedeeltelijk bewolkt  
   Wind: WZW 14.8 km/h
Wind: WZW 14.8 km/h
Temperatuur: 9°C
Voelt als: 7°C
Dauwpunt: 7°C
Vochtigheid: 87%
Barometer: 1011 hPa
Satelliet beelden: Gedeeltelijk bewolkt
Zicht: meer dan 10 km
Bewolking: Gedeeltelijk bewolkt 1433 m
EDDM 150120Z 25008KT 9999 SCT047 09/07 Q1011 NOSIG
LFPO - Parijs
Gewijzigd: 15-05-2021 03:00
Helder  
Helder  
   Wind: ZZW 11.1 km/h
Wind: ZZW 11.1 km/h
Temperatuur: 10°C
Voelt als: 8°C
Dauwpunt: 9°C
Vochtigheid: 94%
Barometer: 1008 hPa
Zicht: meer dan 10 km
Bewolking: Helder
LFPO 150100Z 20006KT 170V230 CAVOK 10/09 Q1008 NOSIG
EDDL - Düsseldorf
Gewijzigd: 15-05-2021 03:20
Helder  
Helder  
   Wind: Zuiden 7.4 km/h
Wind: Zuiden 7.4 km/h
Temperatuur: 8°C
Voelt als: 7°C
Dauwpunt: 7°C
Vochtigheid: 93%
Barometer: 1007 hPa
Zicht: meer dan 10 km
Bewolking: Helder
EDDL 150120Z 17004KT CAVOK 08/07 Q1007 NOSIG
EDDK - Köln/Bonn Duitsland
Gewijzigd: 15-05-2021 03:20
Helder  
Helder  
   Wind: ZO 7.4 km/h
Wind: ZO 7.4 km/h
Temperatuur: 9°C
Voelt als: 8°C
Dauwpunt: 7°C
Vochtigheid: 87%
Barometer: 1007 hPa
Zicht: meer dan 10 km
Bewolking: Helder
EDDK 150120Z 13004KT 090V160 CAVOK 09/07 Q1007 NOSIG
TNCA - Oranjestad Aruba
Gewijzigd: 15-05-2021 03:00
Licht bewolkt  
Licht bewolkt  
   Wind: Oosten 33.3 km/h
Wind: Oosten 33.3 km/h
Temperatuur: 27°C
Gevoelstemperatuur: 29°C
Dauwpunt: 23°C
Vochtigheid: 79%
Barometer: 1011 hPa
Satelliet beelden: Licht bewolkt
Zicht: meer dan 10 km
Bewolking: Licht bewolkt 549 m
TNCA 150100Z 09018KT 9999 FEW018 27/23 Q1011 NOSIG
TNCC - Willemstad Curacao
Gewijzigd: 15-05-2021 03:00
Gedeeltelijk bewolkt  
Gedeeltelijk bewolkt  
   Wind: Oosten 22.2 km/h
Wind: Oosten 22.2 km/h
Temperatuur: 27°C
Gevoelstemperatuur: 29°C
Dauwpunt: 23°C
Vochtigheid: 79%
Barometer: 1012 hPa
Satelliet beelden: Gedeeltelijk bewolkt
Zicht: meer dan 10 km
Bewolking: Gedeeltelijk bewolkt 549 m
TNCC 150100Z 10012KT 9999 SCT018 27/23 Q1012 NOSIG
LEAL - La Nucia Spanje
Gewijzigd: 15-05-2021 03:30
Helder  
Helder  
   Wind: Westen 5.6 km/h
Wind: Westen 5.6 km/h
Temperatuur: 15°C
Dauwpunt: 12°C
Vochtigheid: 82%
Barometer: 1017 hPa
Zicht: meer dan 10 km
Bewolking: Helder
LEAL 150130Z 27003KT CAVOK 15/12 Q1017 NOSIG

Script ontwikkeld door  Saratoga-weather.org Aangepast voor de template door  Weerstation Leuven

U vindt ons ook hier:

Het Weer Aktueel

WOW Nederland KNMI

Vereniging voor Weerkunde en Klimatologie

UK Met Office Weather Observation Website (WOW)

WeatherCloud

Weather Underground

Awekas

MeteoMap.Cloud

HAMweather, WeatherForYou, PWS Weather

Citizen Weather Observer Program (CWOP)

Apparatuur in gebruik:

Hardwareleverancier
Weerhuisje

Weerstation
Vantage Pro2+ UV

Weercomputer's
alix3d2 & wl330n

Weerprogramma's
Smartbedded

Satelliet NOAA's
WRX137 & KX137

Satelliet Eumetsat
Ayecka SR1 & Triax

Bliksemdetectie
Boltek StormTracker

Webleverancier
F-Service

Weerhuisje

Vantage Pro2+ UV

alix3d2 & wl330n

Smartbedded

WRX137 & KX137

Ayecka SR1 & Triax

Boltek StormTracker

F-Service